createdAt,value
2023-03-04T00:00:15.831Z,1007.77
2023-03-04T00:05:15.805Z,1007.75
2023-03-04T00:10:15.671Z,1007.62
2023-03-04T00:15:15.671Z,1007.53
2023-03-04T00:20:15.710Z,1007.52
2023-03-04T00:25:15.503Z,1007.44
2023-03-04T00:30:15.452Z,1007.40
2023-03-04T00:35:15.444Z,1007.49
2023-03-04T00:40:15.299Z,1007.42
2023-03-04T00:45:15.247Z,1007.32
2023-03-04T00:50:15.163Z,1007.31
2023-03-04T00:55:15.139Z,1007.31
2023-03-04T01:00:15.073Z,1007.21
2023-03-04T01:05:15.004Z,1007.19
2023-03-04T01:10:14.871Z,1007.16
2023-03-04T01:15:14.884Z,1007.02
2023-03-04T01:20:14.863Z,1006.92
2023-03-04T01:25:14.784Z,1006.93
2023-03-04T01:30:14.659Z,1006.85
2023-03-04T01:35:14.597Z,1006.67
2023-03-04T01:40:14.548Z,1006.71
2023-03-04T01:45:14.522Z,1006.63
2023-03-04T01:50:14.462Z,1006.63
2023-03-04T01:55:14.346Z,1006.54
2023-03-04T02:00:14.387Z,1006.56
2023-03-04T02:05:14.223Z,1006.49
2023-03-04T02:10:14.256Z,1006.43
2023-03-04T02:15:14.223Z,1006.41
2023-03-04T02:20:14.017Z,1006.31
2023-03-04T02:25:13.951Z,1006.43
2023-03-04T02:30:13.892Z,1006.30
2023-03-04T02:35:13.957Z,1006.25
2023-03-04T02:40:13.750Z,1006.22
2023-03-04T02:45:13.693Z,1006.18
2023-03-04T02:50:13.609Z,1006.08
2023-03-04T02:55:13.614Z,1005.93
2023-03-04T03:00:13.484Z,1005.84
2023-03-04T03:05:13.483Z,1005.89
2023-03-04T03:10:13.366Z,1005.81
2023-03-04T03:15:13.329Z,1005.78
2023-03-04T03:20:13.276Z,1005.76
2023-03-04T03:25:13.173Z,1005.78
2023-03-04T03:30:13.247Z,1005.59
2023-03-04T03:35:13.047Z,1005.74
2023-03-04T03:40:13.006Z,1005.64
2023-03-04T03:45:13.084Z,1005.62
2023-03-04T03:50:12.859Z,1005.56
2023-03-04T03:55:12.834Z,1005.66
2023-03-04T04:00:12.740Z,1005.62
2023-03-04T04:05:12.806Z,1005.73
2023-03-04T04:10:12.646Z,1005.72
2023-03-04T04:15:12.563Z,1005.65
2023-03-04T04:20:12.518Z,1005.72
2023-03-04T04:25:12.463Z,1005.79
2023-03-04T04:30:12.365Z,1005.63
2023-03-04T04:35:12.278Z,1005.72
2023-03-04T04:40:12.275Z,1005.76
2023-03-04T04:45:12.241Z,1005.64
2023-03-04T04:50:12.062Z,1005.65
2023-03-04T04:55:12.058Z,1005.62
2023-03-04T05:00:11.965Z,1005.61
2023-03-04T05:05:11.936Z,1005.58
2023-03-04T05:10:11.859Z,1005.51
2023-03-04T05:15:11.823Z,1005.55
2023-03-04T05:20:11.726Z,1005.55
2023-03-04T05:25:11.617Z,1005.57
2023-03-04T05:30:11.573Z,1005.50
2023-03-04T05:35:11.568Z,1005.40
2023-03-04T05:40:11.434Z,1005.38
2023-03-04T05:45:11.359Z,1005.23
2023-03-04T05:50:11.292Z,1005.35
2023-03-04T05:55:11.238Z,1005.25
2023-03-04T06:00:11.225Z,1005.23
2023-03-04T06:05:11.116Z,1005.30
2023-03-04T06:10:11.091Z,1005.24
2023-03-04T06:15:10.936Z,1005.22
2023-03-04T06:20:10.966Z,1005.22
2023-03-04T06:25:10.831Z,1005.18
2023-03-04T06:30:10.765Z,1005.24
2023-03-04T06:35:10.706Z,1005.27
2023-03-04T06:40:10.634Z,1005.29
2023-03-04T06:45:10.620Z,1005.23
2023-03-04T06:50:10.624Z,1005.17
2023-03-04T06:55:10.428Z,1005.25
2023-03-04T07:00:10.427Z,1005.19
2023-03-04T07:05:10.289Z,1005.19
2023-03-04T07:10:10.383Z,1005.21
2023-03-04T07:15:10.252Z,1005.30
2023-03-04T07:20:10.143Z,1005.28
2023-03-04T07:25:10.105Z,1005.21
2023-03-04T07:30:10.027Z,1005.12
2023-03-04T07:35:09.912Z,1005.09
2023-03-04T07:40:09.893Z,1005.07
2023-03-04T07:45:10.191Z,1005.09
2023-03-04T07:50:09.795Z,1005.09
2023-03-04T07:55:09.698Z,1005.06
2023-03-04T08:00:09.561Z,1005.02
2023-03-04T08:05:09.503Z,1005.11
2023-03-04T08:10:09.518Z,1005.04
2023-03-04T08:15:09.389Z,1004.95
2023-03-04T08:20:09.295Z,1004.83
2023-03-04T08:25:09.278Z,1004.81
2023-03-04T08:30:09.197Z,1004.79
2023-03-04T08:35:09.127Z,1004.84
2023-03-04T08:40:09.024Z,1004.80
2023-03-04T08:45:08.991Z,1004.77
2023-03-04T08:50:08.935Z,1004.80
2023-03-04T08:55:09.058Z,1004.72
2023-03-04T09:00:08.839Z,1004.76
2023-03-04T09:05:08.712Z,1004.74
2023-03-04T09:10:08.697Z,1004.78
2023-03-04T09:15:11.842Z,1004.69
2023-03-04T09:20:08.518Z,1004.86
2023-03-04T09:25:12.741Z,1004.80
2023-03-04T09:30:08.363Z,1004.76
2023-03-04T09:35:08.348Z,1004.79
2023-03-04T09:40:08.296Z,1004.71
2023-03-04T09:45:08.183Z,1004.64
2023-03-04T09:50:08.117Z,1004.72
2023-03-04T09:55:08.077Z,1004.67
2023-03-04T10:00:08.104Z,1004.57
2023-03-04T10:05:07.987Z,1004.50
2023-03-04T10:10:07.860Z,1004.50
2023-03-04T10:15:07.828Z,1004.37
2023-03-04T10:20:07.756Z,1004.38
2023-03-04T10:25:07.762Z,1004.34
2023-03-04T10:30:07.758Z,1004.34
2023-03-04T10:35:07.549Z,1004.21
2023-03-04T10:40:07.470Z,1004.12
2023-03-04T10:45:07.380Z,1004.21
2023-03-04T10:50:07.673Z,1004.20
2023-03-04T10:55:07.278Z,1004.16
2023-03-04T11:00:07.185Z,1004.13
2023-03-04T11:05:07.135Z,1004.16
2023-03-04T11:10:07.078Z,1004.12
2023-03-04T11:15:07.002Z,1004.04
2023-03-04T11:20:06.952Z,1004.10
2023-03-04T11:25:07.080Z,1003.95
2023-03-04T11:30:06.844Z,1003.96
2023-03-04T11:35:06.775Z,1003.91
2023-03-04T11:40:06.659Z,1003.93
2023-03-04T11:45:11.240Z,1003.93
2023-03-04T11:50:07.666Z,1003.85
2023-03-04T11:55:06.466Z,1003.92
2023-03-04T12:00:06.431Z,1003.89
2023-03-04T12:05:06.654Z,1003.80
2023-03-04T12:10:06.450Z,1003.73
2023-03-04T12:15:06.403Z,1003.64
2023-03-04T12:20:06.779Z,1003.64
2023-03-04T12:25:06.092Z,1003.57
2023-03-04T12:30:06.042Z,1003.45
2023-03-04T12:35:06.039Z,1003.32
2023-03-04T12:40:05.926Z,1003.33
2023-03-04T12:45:05.938Z,1003.34
2023-03-04T12:50:05.793Z,1003.36
2023-03-04T12:55:05.746Z,1003.24
2023-03-04T13:00:05.629Z,1003.21
2023-03-04T13:05:05.594Z,1003.12
2023-03-04T13:10:05.547Z,1003.13
2023-03-04T13:15:05.490Z,1003.11
2023-03-04T13:20:05.370Z,1003.01
2023-03-04T13:25:05.285Z,1003.03
2023-03-04T13:30:05.273Z,1003.07
2023-03-04T13:35:05.148Z,1002.87
2023-03-04T13:40:05.379Z,1002.97
2023-03-04T13:45:05.088Z,1002.92
2023-03-04T13:50:04.974Z,1002.79
2023-03-04T13:55:04.957Z,1002.81
2023-03-04T14:00:04.957Z,1002.84
2023-03-04T14:05:04.792Z,1002.78
2023-03-04T14:10:04.826Z,1002.78
2023-03-04T14:15:04.635Z,1002.71
2023-03-04T14:20:04.780Z,1002.73
2023-03-04T14:25:04.667Z,1002.64
2023-03-04T14:30:04.476Z,1002.61
2023-03-04T14:35:04.440Z,1002.65
2023-03-04T14:40:04.286Z,1002.58
2023-03-04T14:45:04.255Z,1002.60
2023-03-04T14:50:04.334Z,1002.59
2023-03-04T14:55:04.216Z,1002.63
2023-03-04T15:00:04.051Z,1002.52
2023-03-04T15:05:09.590Z,1002.52
2023-03-04T15:10:04.960Z,1002.46
2023-03-04T15:15:03.903Z,1002.43
2023-03-04T15:20:03.818Z,1002.44
2023-03-04T15:25:03.747Z,1002.51
2023-03-04T15:30:03.655Z,1002.49
2023-03-04T15:35:03.840Z,1002.36
2023-03-04T15:40:03.506Z,1002.44
2023-03-04T15:45:03.627Z,1002.51
2023-03-04T15:50:03.399Z,1002.56
2023-03-04T15:55:03.404Z,1002.58
2023-03-04T16:00:03.504Z,1002.63
2023-03-04T16:05:03.222Z,1002.71
2023-03-04T16:10:03.257Z,1002.77
2023-03-04T16:15:05.093Z,1002.73
2023-03-04T16:20:03.058Z,1002.71
2023-03-04T16:25:02.991Z,1002.68
2023-03-04T16:30:02.996Z,1002.65
2023-03-04T16:35:02.848Z,1002.67
2023-03-04T16:40:02.841Z,1002.71
2023-03-04T16:45:03.118Z,1002.73
2023-03-04T16:50:02.937Z,1002.75
2023-03-04T16:55:02.583Z,1002.79
2023-03-04T17:00:02.558Z,1002.80
2023-03-04T17:05:02.452Z,1002.83
2023-03-04T17:10:02.396Z,1002.74
2023-03-04T17:15:02.395Z,1002.79
2023-03-04T17:20:02.425Z,1002.81
2023-03-04T17:25:02.174Z,1002.86
2023-03-04T17:30:02.335Z,1003.00
2023-03-04T17:35:02.026Z,1003.00
2023-03-04T17:40:02.022Z,1003.04
2023-03-04T17:45:01.932Z,1003.07
2023-03-04T17:50:01.915Z,1003.03
2023-03-04T17:55:01.725Z,1003.05
2023-03-04T18:00:01.868Z,1003.13
2023-03-04T18:05:01.705Z,1003.10
2023-03-04T18:10:01.561Z,1003.06
2023-03-04T18:15:01.508Z,1002.99
2023-03-04T18:20:01.426Z,1003.03
2023-03-04T18:25:01.396Z,1003.05
2023-03-04T18:30:01.329Z,1003.12
2023-03-04T18:35:01.265Z,1003.04
2023-03-04T18:40:01.346Z,1002.99
2023-03-04T18:45:01.137Z,1003.02
2023-03-04T18:50:01.067Z,1003.17
2023-03-04T18:55:01.026Z,1003.10
2023-03-04T19:00:00.957Z,1003.21
2023-03-04T19:05:01.148Z,1003.20
2023-03-04T19:10:01.074Z,1003.20
2023-03-04T19:15:00.974Z,1003.32
2023-03-04T19:20:00.654Z,1003.32
2023-03-04T19:25:00.684Z,1003.21
2023-03-04T19:30:00.628Z,1003.27
2023-03-04T19:35:00.520Z,1003.27
2023-03-04T19:40:00.414Z,1003.18
2023-03-04T19:45:00.379Z,1003.18
2023-03-04T19:50:00.302Z,1003.16
2023-03-04T19:55:00.181Z,1003.15
2023-03-04T20:00:00.528Z,1003.17
2023-03-04T20:05:00.374Z,1003.19
2023-03-04T20:10:00.212Z,1003.23
2023-03-04T20:15:00.045Z,1003.19
2023-03-04T20:20:00.194Z,1003.23
2023-03-04T20:25:01.401Z,1003.31
2023-03-04T20:30:01.886Z,1003.36
2023-03-04T20:34:59.915Z,1003.38
2023-03-04T20:40:00.850Z,1003.35
2023-03-04T20:44:59.692Z,1003.34
2023-03-04T20:49:59.589Z,1003.31
2023-03-04T20:54:59.605Z,1003.35
2023-03-04T20:59:59.604Z,1003.27
2023-03-04T21:04:59.400Z,1003.17
2023-03-04T21:09:59.223Z,1003.22
2023-03-04T21:14:59.427Z,1003.13
2023-03-04T21:19:59.275Z,1003.21
2023-03-04T21:24:59.081Z,1003.29
2023-03-04T21:29:59.145Z,1003.20
2023-03-04T21:34:59.036Z,1003.13
2023-03-04T21:39:59.058Z,1003.16
2023-03-04T21:44:58.865Z,1003.15
2023-03-04T21:49:58.910Z,1003.16
2023-03-04T21:54:58.950Z,1003.14
2023-03-04T21:59:58.810Z,1003.17
2023-03-04T22:04:58.580Z,1003.08
2023-03-04T22:09:58.462Z,1002.98
2023-03-04T22:14:58.487Z,1002.94
2023-03-04T22:19:58.327Z,1002.96
2023-03-04T22:24:59.725Z,1002.83
2023-03-04T22:29:59.307Z,1002.89
2023-03-04T22:34:58.974Z,1002.84
2023-03-04T22:39:58.196Z,1002.79
2023-03-04T22:44:58.138Z,1002.61
2023-03-04T22:49:58.047Z,1002.74
2023-03-04T22:54:57.959Z,1002.71
2023-03-04T22:59:57.879Z,1002.74
2023-03-04T23:04:57.909Z,1002.65
2023-03-04T23:09:57.876Z,1002.68
2023-03-04T23:14:57.748Z,1002.71
2023-03-04T23:19:57.600Z,1002.74
2023-03-04T23:24:57.666Z,1002.66
2023-03-04T23:29:57.550Z,1002.64
2023-03-04T23:34:57.481Z,1002.71
2023-03-04T23:39:57.267Z,1002.63
2023-03-04T23:44:57.314Z,1002.53
2023-03-04T23:49:57.280Z,1002.54
2023-03-04T23:54:57.301Z,1002.53
2023-03-04T23:59:57.285Z,1002.48
